Impacts TAF Board
For situational awareness. Not to be used for flight planning purposes.
IDs:

KISO - Kinston Rgnl, NC, US

Issued at 0537 UTC 22 Oct 2021
Updated at 0728 UTC 22 Oct 2021
Potential Impact None Slight Moderate High
Time0715Z 22/08Z 22/09Z 22/10Z 22/11Z 22/12Z 22/13Z 22/14Z 22/15Z 22/16Z 22/17Z 22/18Z 22/19Z 22/20Z>>
Type OBS PRVL PRVL PRVL PRVL PRVL PRVL PRVL PRVL PRVL PRVL PRVL PRVL PRVL
VIS 10 >6 >6 >6 >6 >6 >6 >6 >6 >6 >6 >6 >6 >6
CIG 110 -- -- -- -- -- -- -- -- -- -- -- -- --
Cover BKN SCT SCT SCT SCT SCT SCT SCT SCT SCT SCT SCT SCT SCT
FltCat VFR VFR VFR VFR VFR VFR VFR VFR VFR VFR VFR VFR VFR VFR
WX -- -- -- -- -- -- -- -- -- -- -- -- VCSH VCSH
WDir 200 210 210 210 210 210 220 220 220 220 220 220 260 260
WSpd 8 8 8 8 8 8 9 9 9 9 9 9 6 6
WGst -- -- -- -- -- -- 14 14 14 14 14 14 -- --
Raw TAF
KISO 220537Z 2206/2306 21008KT P6SM SCT080
  FM221300 22009G14KT P6SM SCT040
  FM221900 26006KT P6SM VCSH SCT050 AMD LTD TO CLD VIS AND WIND


Raw METAR
KISO 220715Z AUTO 20008KT 10SM BKN110 20/17 A3001 RMK AO2 T01980166
KISO 220655Z AUTO 22005KT 10SM OVC110 20/17 A3002 RMK AO2 T02000166
KISO 220635Z AUTO 21006KT 10SM OVC110 20/17 A3002 RMK AO2 T01980165
KISO 220615Z AUTO 21006KT 10SM SCT080 OVC110 20/17 A3002 RMK AO2 T01970165
KISO 220555Z AUTO 20009KT 10SM SCT080 BKN100 19/16 A3002 RMK AO2 T01920164 10208 20188 402750090
KISO 220535Z AUTO 20007KT 10SM BKN085 19/16 A3003 RMK AO2 T01920164
KISO 220515Z AUTO 21006KT 10SM SCT085 19/16 A3004 RMK AO2 T01900162
KISO 220455Z AUTO 20007KT 10SM OVC085 19/16 A3004 RMK AO2 T01920163
KISO 220435Z AUTO 19007KT 10SM SCT085 19/16 A3004 RMK AO2 T01900161

METAR Board
Radar Display
Forecast Discussion
For situational awareness. Not to be used for flight planning purposes.